Tideswell, United Kingdom
Current Conditions -  °F | °C
As of 10:50 AM on Sunday 21 Dec 2014 (Local Time) from EGCC Reporting Station
Broken Clouds Broken Clouds  
Wind Chill: 41°   Ceiling: 2500
Heat Index: 46°   Visibility: 6mi
Dew Point: 45°   Wind: 13mph
Humidity: 93%   Direction: 190°S
Pressure: 30.15"   Gusts: NA
Location:  53.28°N, 1.77°W
Report Text: EGCC 211050Z 19011KT 9999 FEW018 BKN025 08/07 Q1021
Loading
Personal Weather Stations






























Interactive Weather Map New forecast layout! Learn more

10-Day Weather Forecast

Advertisements
Track Severe Weather on mobile